SAS4221 EDDH-EGLL
Flight info
| Callsign | SAS4221 |
|---|---|
| Flight time | 1h 9m |
| Altitude | 40000 |
| Route | WSN5G/33 WSN N125 ITMIZ DCT ABNED L980 LOGAN |
| Aircraft | A343/H-SDE2E3FGHIJ4J5M1RWXY/LB1D1 |
Departure
| Time | 2026-05-07 21:15 |
|---|---|
| Airport | Hamburg Helmut Schmidt Airport (EDDH) |
Arrival
| Time | 2026-05-07 22:25 |
|---|---|
| Airport | London Heathrow Airport (EGLL) |
| Time | Latitude | Longitude | Altitude | Speed | Heading |
|---|---|---|---|---|---|
| 2026-05-07 20:43 | 53.63106 | 10.00382 | 50 ft | 0 kts | 85° |
| 2026-05-07 21:01 | 53.63105 | 10.00377 | 50 ft | 3 kts | 86° |
| 2026-05-07 21:02 | 53.63107 | 10.00333 | 47 ft | 4 kts | 101° |
| 2026-05-07 21:02 | 53.63110 | 10.00292 | 44 ft | 4 kts | 102° |
| 2026-05-07 21:02 | 53.63121 | 10.00260 | 45 ft | 4 kts | 162° |
| 2026-05-07 21:02 | 53.63143 | 10.00255 | 45 ft | 1 kts | 176° |
| 2026-05-07 21:08 | 53.63138 | 10.00255 | 50 ft | 4 kts | 176° |
| 2026-05-07 21:08 | 53.63057 | 10.00239 | 50 ft | 19 kts | 201° |
| 2026-05-07 21:08 | 53.62957 | 10.00144 | 49 ft | 0 kts | 212° |
| 2026-05-07 21:08 | 53.62945 | 10.00130 | 50 ft | 6 kts | 212° |
| 2026-05-07 21:09 | 53.62931 | 10.00115 | 50 ft | 2 kts | 212° |
| 2026-05-07 21:09 | 53.62913 | 10.00096 | 50 ft | 6 kts | 212° |
| 2026-05-07 21:09 | 53.62869 | 10.00082 | 50 ft | 8 kts | 175° |
| 2026-05-07 21:09 | 53.62748 | 10.00157 | 50 ft | 27 kts | 155° |
| 2026-05-07 21:10 | 53.62651 | 10.00244 | 45 ft | 4 kts | 152° |
| 2026-05-07 21:10 | 53.62581 | 10.00219 | 50 ft | 14 kts | 226° |
| 2026-05-07 21:10 | 53.62576 | 10.00207 | 51 ft | 0 kts | 233° |
| 2026-05-07 21:10 | 53.62571 | 10.00194 | 51 ft | 7 kts | 235° |
| 2026-05-07 21:11 | 53.62557 | 10.00030 | 52 ft | 16 kts | 295° |
| 2026-05-07 21:11 | 53.62604 | 9.99971 | 51 ft | 0 kts | 332° |
| 2026-05-07 21:11 | 53.62647 | 9.99954 | 47 ft | 5 kts | 349° |
| 2026-05-07 21:12 | 53.62669 | 9.99937 | 49 ft | 0 kts | 332° |
| 2026-05-07 21:12 | 53.62698 | 9.99917 | 50 ft | 4 kts | 335° |
| 2026-05-07 21:12 | 53.62765 | 9.99877 | 51 ft | 0 kts | 337° |
| 2026-05-07 21:12 | 53.62779 | 9.99861 | 51 ft | 0 kts | 327° |
| 2026-05-07 21:14 | 53.62785 | 9.99855 | 46 ft | 15 kts | 327° |
| 2026-05-07 21:15 | 53.63204 | 9.99467 | 49 ft | 118 kts | 333° |
| 2026-05-07 21:15 | 53.64183 | 9.98625 | 49 ft | 195 kts | 334° |
| 2026-05-07 21:15 | 53.65512 | 9.97515 | 539 ft | 225 kts | 336° |
| 2026-05-07 21:15 | 53.67024 | 9.96262 | 1084 ft | 256 kts | 336° |
| 2026-05-07 21:16 | 53.68635 | 9.94878 | 2270 ft | 260 kts | 335° |
| 2026-05-07 21:16 | 53.70227 | 9.93391 | 3573 ft | 264 kts | 327° |
| 2026-05-07 21:16 | 53.71409 | 9.91027 | 4496 ft | 267 kts | 294° |
| 2026-05-07 21:16 | 53.71692 | 9.87939 | 5020 ft | 271 kts | 262° |
| 2026-05-07 21:17 | 53.71113 | 9.84929 | 5155 ft | 271 kts | 245° |
| 2026-05-07 21:17 | 53.70350 | 9.82052 | 5168 ft | 272 kts | 246° |
| 2026-05-07 21:17 | 53.69630 | 9.79097 | 5417 ft | 276 kts | 248° |
| 2026-05-07 21:17 | 53.68928 | 9.75954 | 5771 ft | 300 kts | 250° |
| 2026-05-07 21:18 | 53.68197 | 9.72463 | 6257 ft | 330 kts | 251° |
| 2026-05-07 21:18 | 53.67427 | 9.68665 | 6828 ft | 352 kts | 251° |
| 2026-05-07 21:18 | 53.66635 | 9.64705 | 7701 ft | 361 kts | 251° |
| 2026-05-07 21:18 | 53.65828 | 9.60658 | 8673 ft | 367 kts | 251° |
| 2026-05-07 21:19 | 53.64759 | 9.56721 | 9702 ft | 371 kts | 238° |
| 2026-05-07 21:19 | 53.63291 | 9.53141 | 10699 ft | 373 kts | 233° |
| 2026-05-07 21:19 | 53.61748 | 9.49588 | 11562 ft | 378 kts | 234° |
| 2026-05-07 21:19 | 53.60717 | 9.47213 | 12123 ft | 382 kts | 234° |
| 2026-05-07 21:20 | 53.59142 | 9.43578 | 13005 ft | 386 kts | 234° |
| 2026-05-07 21:20 | 53.57555 | 9.39904 | 13899 ft | 391 kts | 234° |
| 2026-05-07 21:20 | 53.55947 | 9.36181 | 14709 ft | 395 kts | 234° |
| 2026-05-07 21:20 | 53.54321 | 9.32415 | 15500 ft | 400 kts | 234° |
| 2026-05-07 21:21 | 53.52677 | 9.28607 | 16259 ft | 405 kts | 234° |
| 2026-05-07 21:21 | 53.51008 | 9.24747 | 17040 ft | 410 kts | 234° |
| 2026-05-07 21:21 | 53.49320 | 9.20856 | 17819 ft | 415 kts | 234° |
| 2026-05-07 21:21 | 53.47605 | 9.16906 | 18585 ft | 419 kts | 234° |
| 2026-05-07 21:22 | 53.45878 | 9.12936 | 19253 ft | 424 kts | 234° |
| 2026-05-07 21:22 | 53.44126 | 9.08912 | 19919 ft | 428 kts | 234° |
| 2026-05-07 21:22 | 53.42360 | 9.04862 | 20579 ft | 432 kts | 234° |
| 2026-05-07 21:22 | 53.40575 | 9.00774 | 21265 ft | 436 kts | 234° |
| 2026-05-07 21:23 | 53.38772 | 8.96653 | 21937 ft | 439 kts | 234° |
| 2026-05-07 21:23 | 53.36957 | 8.92511 | 22610 ft | 442 kts | 234° |
| 2026-05-07 21:23 | 53.35234 | 8.88301 | 23214 ft | 446 kts | 239° |
| 2026-05-07 21:23 | 53.33845 | 8.83625 | 23790 ft | 450 kts | 246° |
| 2026-05-07 21:24 | 53.32665 | 8.78762 | 24274 ft | 453 kts | 249° |
| 2026-05-07 21:24 | 53.31573 | 8.73797 | 24756 ft | 457 kts | 250° |
| 2026-05-07 21:24 | 53.30509 | 8.68770 | 25203 ft | 460 kts | 250° |
| 2026-05-07 21:24 | 53.29442 | 8.63710 | 25683 ft | 463 kts | 250° |
| 2026-05-07 21:25 | 53.28365 | 8.58618 | 26164 ft | 465 kts | 250° |
| 2026-05-07 21:25 | 53.27271 | 8.53511 | 26625 ft | 468 kts | 250° |
| 2026-05-07 21:25 | 53.26162 | 8.48394 | 27070 ft | 470 kts | 250° |
| 2026-05-07 21:25 | 53.25106 | 8.43202 | 27515 ft | 473 kts | 252° |
| 2026-05-07 21:26 | 53.24119 | 8.37953 | 27910 ft | 476 kts | 253° |
| 2026-05-07 21:26 | 53.23155 | 8.32658 | 28313 ft | 478 kts | 253° |
| 2026-05-07 21:26 | 53.22186 | 8.27337 | 28699 ft | 480 kts | 253° |
| 2026-05-07 21:26 | 53.21204 | 8.22009 | 29081 ft | 483 kts | 252° |
| 2026-05-07 21:27 | 53.20203 | 8.16657 | 29482 ft | 484 kts | 252° |
| 2026-05-07 21:27 | 53.19187 | 8.11293 | 29874 ft | 486 kts | 252° |
| 2026-05-07 21:27 | 53.18169 | 8.05916 | 30095 ft | 486 kts | 252° |
| 2026-05-07 21:27 | 53.17155 | 8.00539 | 30106 ft | 487 kts | 252° |
| 2026-05-07 21:28 | 53.15120 | 7.89778 | 30120 ft | 487 kts | 252° |
| 2026-05-07 21:28 | 53.13076 | 7.79040 | 30117 ft | 487 kts | 252° |
| 2026-05-07 21:29 | 53.11033 | 7.68363 | 30260 ft | 486 kts | 251° |
| 2026-05-07 21:29 | 53.08542 | 7.57889 | 30279 ft | 487 kts | 247° |
| 2026-05-07 21:30 | 53.05908 | 7.47540 | 30792 ft | 484 kts | 246° |
| 2026-05-07 21:30 | 53.04583 | 7.42403 | 31257 ft | 482 kts | 246° |
| 2026-05-07 21:30 | 53.03261 | 7.37312 | 31723 ft | 480 kts | 246° |
| 2026-05-07 21:31 | 53.01927 | 7.32217 | 32197 ft | 478 kts | 246° |
| 2026-05-07 21:31 | 53.00599 | 7.27176 | 32668 ft | 476 kts | 246° |
| 2026-05-07 21:31 | 52.99387 | 7.22593 | 33096 ft | 474 kts | 246° |
| 2026-05-07 21:31 | 52.98114 | 7.17645 | 33543 ft | 473 kts | 247° |
| 2026-05-07 21:32 | 52.96853 | 7.12527 | 33976 ft | 471 kts | 248° |
| 2026-05-07 21:32 | 52.95680 | 7.07535 | 34385 ft | 470 kts | 249° |
| 2026-05-07 21:32 | 52.94624 | 7.02812 | 34734 ft | 468 kts | 250° |
| 2026-05-07 21:32 | 52.93568 | 6.97789 | 35097 ft | 467 kts | 251° |
| 2026-05-07 21:33 | 52.92573 | 6.92680 | 35478 ft | 465 kts | 252° |
| 2026-05-07 21:33 | 52.91667 | 6.87611 | 35842 ft | 464 kts | 254° |
| 2026-05-07 21:33 | 52.90860 | 6.82906 | 36199 ft | 462 kts | 253° |
| 2026-05-07 21:33 | 52.89613 | 6.78028 | 36606 ft | 458 kts | 240° |
| 2026-05-07 21:34 | 52.87963 | 6.73534 | 37023 ft | 455 kts | 237° |
| 2026-05-07 21:34 | 52.86268 | 6.69128 | 37448 ft | 453 kts | 238° |
| 2026-05-07 21:34 | 52.84667 | 6.64656 | 37866 ft | 450 kts | 241° |
| 2026-05-07 21:34 | 52.83204 | 6.60116 | 38307 ft | 447 kts | 243° |
| 2026-05-07 21:35 | 52.81849 | 6.55510 | 38735 ft | 444 kts | 245° |
| 2026-05-07 21:35 | 52.80575 | 6.50889 | 39096 ft | 441 kts | 246° |
| 2026-05-07 21:35 | 52.79343 | 6.46272 | 39450 ft | 437 kts | 246° |
| 2026-05-07 21:35 | 52.78134 | 6.41688 | 39806 ft | 433 kts | 246° |
| 2026-05-07 21:36 | 52.76934 | 6.37138 | 40058 ft | 433 kts | 246° |
| 2026-05-07 21:36 | 52.75716 | 6.32549 | 40117 ft | 437 kts | 246° |
| 2026-05-07 21:36 | 52.73223 | 6.23245 | 40109 ft | 449 kts | 246° |
| 2026-05-07 21:37 | 52.70648 | 6.13719 | 40108 ft | 460 kts | 246° |
| 2026-05-07 21:37 | 52.68021 | 6.04050 | 40104 ft | 470 kts | 246° |
| 2026-05-07 21:38 | 52.65324 | 5.94163 | 40094 ft | 474 kts | 246° |
| 2026-05-07 21:38 | 52.62620 | 5.84289 | 40093 ft | 472 kts | 245° |
| 2026-05-07 21:39 | 52.59916 | 5.74461 | 40097 ft | 471 kts | 245° |
| 2026-05-07 21:39 | 52.57207 | 5.64658 | 40096 ft | 471 kts | 245° |
| 2026-05-07 21:40 | 52.54488 | 5.54859 | 40102 ft | 471 kts | 245° |
| 2026-05-07 21:40 | 52.51762 | 5.45073 | 40112 ft | 471 kts | 245° |
| 2026-05-07 21:41 | 52.49026 | 5.35295 | 40111 ft | 471 kts | 245° |
| 2026-05-07 21:41 | 52.46284 | 5.25532 | 40092 ft | 471 kts | 245° |
| 2026-05-07 21:42 | 52.43533 | 5.15781 | 40088 ft | 471 kts | 245° |
| 2026-05-07 21:42 | 52.40778 | 5.06057 | 40100 ft | 471 kts | 245° |
| 2026-05-07 21:43 | 52.38030 | 4.96400 | 40105 ft | 471 kts | 245° |
| 2026-05-07 21:43 | 52.35261 | 4.86704 | 40112 ft | 470 kts | 245° |
| 2026-05-07 21:44 | 52.32485 | 4.77026 | 40112 ft | 470 kts | 245° |
| 2026-05-07 21:44 | 52.29699 | 4.67351 | 40099 ft | 470 kts | 245° |
| 2026-05-07 21:45 | 52.26907 | 4.57697 | 40079 ft | 470 kts | 245° |
| 2026-05-07 21:45 | 52.24104 | 4.48043 | 40092 ft | 470 kts | 245° |
| 2026-05-07 21:46 | 52.21314 | 4.38473 | 40093 ft | 470 kts | 244° |
| 2026-05-07 21:46 | 52.18500 | 4.28860 | 40086 ft | 470 kts | 244° |
| 2026-05-07 21:47 | 52.15817 | 4.19732 | 40083 ft | 469 kts | 244° |
| 2026-05-07 21:47 | 52.12992 | 4.10154 | 40090 ft | 469 kts | 244° |
| 2026-05-07 21:48 | 52.10168 | 4.00620 | 40081 ft | 469 kts | 244° |
| 2026-05-07 21:48 | 52.07315 | 3.91029 | 40096 ft | 469 kts | 244° |
| 2026-05-07 21:49 | 52.04469 | 3.81494 | 40103 ft | 469 kts | 244° |
| 2026-05-07 21:49 | 52.01606 | 3.71943 | 40100 ft | 469 kts | 244° |
| 2026-05-07 21:50 | 51.98748 | 3.62443 | 40094 ft | 469 kts | 244° |
| 2026-05-07 21:50 | 51.95893 | 3.52989 | 40095 ft | 469 kts | 244° |
| 2026-05-07 21:51 | 51.94773 | 3.49292 | 40092 ft | 469 kts | 244° |
| 2026-05-07 21:53 | 51.94546 | 3.48543 | 40081 ft | 469 kts | 244° |
| 2026-05-07 21:54 | 51.91664 | 3.39057 | 40088 ft | 469 kts | 244° |
| 2026-05-07 21:54 | 51.88797 | 3.29660 | 40090 ft | 469 kts | 244° |
| 2026-05-07 21:55 | 51.85969 | 3.20129 | 40103 ft | 469 kts | 249° |
| 2026-05-07 21:55 | 51.84492 | 3.09896 | 40092 ft | 468 kts | 262° |
| 2026-05-07 21:56 | 51.83737 | 2.99416 | 40103 ft | 470 kts | 264° |
| 2026-05-07 21:56 | 51.83090 | 2.88902 | 40110 ft | 470 kts | 264° |
| 2026-05-07 21:57 | 51.82421 | 2.78386 | 40094 ft | 470 kts | 263° |
| 2026-05-07 21:57 | 51.81718 | 2.67867 | 40098 ft | 470 kts | 263° |
| 2026-05-07 21:58 | 51.81004 | 2.57416 | 40105 ft | 470 kts | 263° |
| 2026-05-07 21:58 | 51.80269 | 2.46940 | 40089 ft | 470 kts | 263° |
| 2026-05-07 21:59 | 51.79900 | 2.41723 | 39747 ft | 465 kts | 263° |
| 2026-05-07 21:59 | 51.79531 | 2.36527 | 39066 ft | 467 kts | 263° |
| 2026-05-07 21:59 | 51.79157 | 2.31299 | 38375 ft | 468 kts | 263° |
| 2026-05-07 21:59 | 51.78784 | 2.26089 | 37675 ft | 466 kts | 263° |
| 2026-05-07 22:00 | 51.78411 | 2.20891 | 37002 ft | 464 kts | 263° |
| 2026-05-07 22:00 | 51.78078 | 2.15713 | 36324 ft | 463 kts | 264° |
| 2026-05-07 22:00 | 51.77778 | 2.10539 | 35616 ft | 461 kts | 264° |
| 2026-05-07 22:00 | 51.77490 | 2.05391 | 34920 ft | 460 kts | 264° |
| 2026-05-07 22:01 | 51.77204 | 2.00324 | 34233 ft | 458 kts | 264° |
| 2026-05-07 22:01 | 51.76910 | 1.95206 | 33367 ft | 457 kts | 264° |
| 2026-05-07 22:01 | 51.76608 | 1.90078 | 32343 ft | 460 kts | 264° |
| 2026-05-07 22:01 | 51.76296 | 1.84918 | 31262 ft | 463 kts | 264° |
| 2026-05-07 22:02 | 51.75978 | 1.79727 | 30193 ft | 466 kts | 264° |
| 2026-05-07 22:02 | 51.75654 | 1.74519 | 29231 ft | 464 kts | 264° |
| 2026-05-07 22:02 | 51.75331 | 1.69364 | 28402 ft | 459 kts | 264° |
| 2026-05-07 22:02 | 51.75010 | 1.64260 | 27573 ft | 454 kts | 264° |
| 2026-05-07 22:03 | 51.74693 | 1.59226 | 26793 ft | 450 kts | 264° |
| 2026-05-07 22:03 | 51.74384 | 1.54223 | 26017 ft | 445 kts | 264° |
| 2026-05-07 22:03 | 51.74078 | 1.49287 | 25411 ft | 438 kts | 264° |
| 2026-05-07 22:03 | 51.73781 | 1.44474 | 25142 ft | 423 kts | 264° |
| 2026-05-07 22:04 | 51.73502 | 1.39910 | 25095 ft | 405 kts | 264° |
| 2026-05-07 22:04 | 51.73233 | 1.35484 | 25087 ft | 387 kts | 264° |
| 2026-05-07 22:04 | 51.72976 | 1.31269 | 25058 ft | 371 kts | 264° |
| 2026-05-07 22:04 | 51.72726 | 1.27143 | 24495 ft | 370 kts | 264° |
| 2026-05-07 22:05 | 51.72469 | 1.22951 | 23574 ft | 380 kts | 264° |
| 2026-05-07 22:05 | 51.72206 | 1.18670 | 22493 ft | 388 kts | 264° |
| 2026-05-07 22:05 | 51.71951 | 1.14521 | 21435 ft | 396 kts | 264° |
| 2026-05-07 22:05 | 51.71677 | 1.10051 | 20332 ft | 404 kts | 264° |
| 2026-05-07 22:06 | 51.71400 | 1.05507 | 19276 ft | 410 kts | 264° |
| 2026-05-07 22:06 | 51.71122 | 1.00921 | 18415 ft | 410 kts | 263° |
| 2026-05-07 22:06 | 51.70847 | 0.96364 | 17555 ft | 408 kts | 263° |
| 2026-05-07 22:06 | 51.70669 | 0.93352 | 17014 ft | 405 kts | 264° |
| 2026-05-07 22:07 | 51.70265 | 0.87437 | 16269 ft | 393 kts | 262° |
| 2026-05-07 22:07 | 51.69927 | 0.83028 | 16178 ft | 406 kts | 262° |
| 2026-05-07 22:07 | 51.69587 | 0.78536 | 16645 ft | 404 kts | 262° |
| 2026-05-07 22:07 | 51.69264 | 0.74071 | 16800 ft | 398 kts | 262° |
| 2026-05-07 22:08 | 51.69060 | 0.71125 | 16850 ft | 384 kts | 263° |
| 2026-05-07 22:08 | 51.68784 | 0.66867 | 16262 ft | 379 kts | 263° |
| 2026-05-07 22:08 | 51.68535 | 0.62739 | 15771 ft | 372 kts | 263° |
| 2026-05-07 22:08 | 51.68305 | 0.58628 | 15304 ft | 365 kts | 264° |
| 2026-05-07 22:09 | 51.68099 | 0.54597 | 14849 ft | 358 kts | 264° |
| 2026-05-07 22:09 | 51.67911 | 0.50627 | 14379 ft | 353 kts | 264° |
| 2026-05-07 22:09 | 51.67704 | 0.46674 | 13629 ft | 356 kts | 263° |
| 2026-05-07 22:09 | 51.67461 | 0.42675 | 12640 ft | 362 kts | 263° |
| 2026-05-07 22:10 | 51.67190 | 0.38592 | 11574 ft | 370 kts | 263° |
| 2026-05-07 22:10 | 51.66928 | 0.34458 | 10791 ft | 369 kts | 264° |
| 2026-05-07 22:10 | 51.66683 | 0.30369 | 10136 ft | 364 kts | 264° |
| 2026-05-07 22:10 | 51.66456 | 0.26344 | 9432 ft | 358 kts | 265° |
| 2026-05-07 22:11 | 51.66247 | 0.22374 | 8754 ft | 353 kts | 265° |
| 2026-05-07 22:11 | 51.66057 | 0.18471 | 8107 ft | 347 kts | 265° |
| 2026-05-07 22:11 | 51.65885 | 0.14626 | 7501 ft | 341 kts | 266° |
| 2026-05-07 22:11 | 51.65734 | 0.10847 | 6925 ft | 335 kts | 266° |
| 2026-05-07 22:12 | 51.65601 | 0.07133 | 6369 ft | 330 kts | 266° |
| 2026-05-07 22:12 | 51.65487 | 0.03486 | 5802 ft | 324 kts | 267° |
| 2026-05-07 22:12 | 51.65371 | -0.00097 | 5280 ft | 318 kts | 266° |
| 2026-05-07 22:12 | 51.65162 | -0.03605 | 4756 ft | 312 kts | 263° |
| 2026-05-07 22:13 | 51.64898 | -0.07000 | 4260 ft | 307 kts | 262° |
| 2026-05-07 22:13 | 51.64623 | -0.10237 | 3802 ft | 302 kts | 261° |
| 2026-05-07 22:13 | 51.64342 | -0.13511 | 3492 ft | 292 kts | 261° |
| 2026-05-07 22:13 | 51.64075 | -0.16694 | 3200 ft | 282 kts | 262° |
| 2026-05-07 22:14 | 51.63826 | -0.19740 | 2913 ft | 273 kts | 262° |
| 2026-05-07 22:14 | 51.63587 | -0.22729 | 2625 ft | 265 kts | 262° |
| 2026-05-07 22:14 | 51.63359 | -0.25619 | 2477 ft | 253 kts | 262° |
| 2026-05-07 22:14 | 51.63145 | -0.28341 | 2460 ft | 238 kts | 262° |
| 2026-05-07 22:15 | 51.62943 | -0.30905 | 2461 ft | 227 kts | 261° |
| 2026-05-07 22:15 | 51.62744 | -0.33416 | 2466 ft | 226 kts | 261° |
| 2026-05-07 22:15 | 51.62544 | -0.35924 | 2463 ft | 226 kts | 261° |
| 2026-05-07 22:15 | 51.62344 | -0.38428 | 2466 ft | 226 kts | 261° |
| 2026-05-07 22:16 | 51.62143 | -0.40943 | 2469 ft | 226 kts | 261° |
| 2026-05-07 22:16 | 51.61943 | -0.43451 | 2466 ft | 226 kts | 261° |
| 2026-05-07 22:16 | 51.61742 | -0.45960 | 2465 ft | 226 kts | 261° |
| 2026-05-07 22:16 | 51.61541 | -0.48469 | 2466 ft | 226 kts | 261° |
| 2026-05-07 22:17 | 51.61341 | -0.50979 | 2464 ft | 226 kts | 261° |
| 2026-05-07 22:17 | 51.61142 | -0.53458 | 2467 ft | 226 kts | 261° |
| 2026-05-07 22:17 | 51.60940 | -0.55971 | 2469 ft | 226 kts | 261° |
| 2026-05-07 22:17 | 51.60737 | -0.58484 | 2464 ft | 226 kts | 261° |
| 2026-05-07 22:18 | 51.60534 | -0.60994 | 2466 ft | 226 kts | 261° |
| 2026-05-07 22:18 | 51.60126 | -0.66019 | 2466 ft | 226 kts | 261° |
| 2026-05-07 22:18 | 51.59920 | -0.68529 | 2466 ft | 226 kts | 261° |
| 2026-05-07 22:19 | 51.59582 | -0.70967 | 2465 ft | 223 kts | 248° |
| 2026-05-07 22:19 | 51.58844 | -0.73152 | 2464 ft | 222 kts | 231° |
| 2026-05-07 22:19 | 51.57667 | -0.74723 | 2463 ft | 220 kts | 204° |
| 2026-05-07 22:19 | 51.56190 | -0.75246 | 2484 ft | 219 kts | 182° |
| 2026-05-07 22:20 | 51.54658 | -0.75300 | 2487 ft | 221 kts | 179° |
| 2026-05-07 22:20 | 51.53120 | -0.75281 | 2484 ft | 221 kts | 179° |
| 2026-05-07 22:20 | 51.51585 | -0.75253 | 2487 ft | 221 kts | 179° |
| 2026-05-07 22:20 | 51.50049 | -0.75222 | 2485 ft | 220 kts | 178° |
| 2026-05-07 22:21 | 51.48627 | -0.74530 | 2487 ft | 218 kts | 143° |
| 2026-05-07 22:21 | 51.47820 | -0.72675 | 2490 ft | 194 kts | 110° |
| 2026-05-07 22:21 | 51.47647 | -0.70528 | 2501 ft | 196 kts | 90° |
| 2026-05-07 22:21 | 51.47687 | -0.68341 | 2494 ft | 197 kts | 91° |
| 2026-05-07 22:22 | 51.47698 | -0.66155 | 2390 ft | 190 kts | 92° |
| 2026-05-07 22:22 | 51.47692 | -0.64135 | 2094 ft | 174 kts | 92° |
| 2026-05-07 22:22 | 51.47696 | -0.62271 | 1854 ft | 161 kts | 92° |
| 2026-05-07 22:22 | 51.47703 | -0.60534 | 1633 ft | 152 kts | 92° |
| 2026-05-07 22:23 | 51.47709 | -0.58871 | 1420 ft | 145 kts | 92° |
| 2026-05-07 22:23 | 51.47715 | -0.57288 | 1229 ft | 140 kts | 92° |
| 2026-05-07 22:23 | 51.47721 | -0.55723 | 1035 ft | 140 kts | 92° |
| 2026-05-07 22:23 | 51.47727 | -0.54163 | 835 ft | 140 kts | 92° |
| 2026-05-07 22:24 | 51.47733 | -0.52637 | 640 ft | 138 kts | 91° |
| 2026-05-07 22:24 | 51.47738 | -0.51098 | 436 ft | 137 kts | 91° |
| 2026-05-07 22:24 | 51.47744 | -0.49571 | 264 ft | 137 kts | 91° |
| 2026-05-07 22:24 | 51.47747 | -0.48076 | 120 ft | 135 kts | 92° |
| 2026-05-07 22:25 | 51.47752 | -0.46629 | 94 ft | 110 kts | 89° |
| 2026-05-07 22:25 | 51.47758 | -0.45946 | 92 ft | 50 kts | 89° |
| 2026-05-07 22:25 | 51.47759 | -0.45590 | 92 ft | 10 kts | 95° |
| 2026-05-07 22:25 | 51.47679 | -0.45471 | 93 ft | 20 kts | 172° |
| 2026-05-07 22:26 | 51.47651 | -0.45467 | 90 ft | 0 kts | 175° |
| 2026-05-07 22:26 | 51.47616 | -0.45490 | 94 ft | 22 kts | 216° |
| 2026-05-07 22:26 | 51.47592 | -0.45564 | 93 ft | 9 kts | 266° |
| 2026-05-07 22:26 | 51.47593 | -0.45718 | 90 ft | 16 kts | 270° |
| 2026-05-07 22:27 | 51.47593 | -0.45906 | 93 ft | 18 kts | 270° |
| 2026-05-07 22:27 | 51.47595 | -0.46126 | 94 ft | 21 kts | 270° |
| 2026-05-07 22:27 | 51.47596 | -0.46372 | 92 ft | 23 kts | 270° |
| 2026-05-07 22:27 | 51.47595 | -0.46642 | 95 ft | 19 kts | 268° |
| 2026-05-07 22:28 | 51.47591 | -0.46794 | 91 ft | 15 kts | 266° |
| 2026-05-07 22:28 | 51.47536 | -0.46924 | 95 ft | 15 kts | 214° |
| 2026-05-07 22:28 | 51.47493 | -0.47073 | 93 ft | 16 kts | 269° |
| 2026-05-07 22:28 | 51.47491 | -0.47266 | 90 ft | 18 kts | 262° |
| 2026-05-07 22:29 | 51.47418 | -0.47347 | 93 ft | 13 kts | 188° |
| 2026-05-07 22:29 | 51.47317 | -0.47352 | 90 ft | 16 kts | 180° |
| 2026-05-07 22:29 | 51.47199 | -0.47352 | 90 ft | 18 kts | 180° |
| 2026-05-07 22:29 | 51.47083 | -0.47352 | 90 ft | 0 kts | 180° |
| 2026-05-07 22:30 | 51.47074 | -0.47352 | 90 ft | 3 kts | 180° |
| 2026-05-07 22:30 | 51.47041 | -0.47352 | 90 ft | 7 kts | 180° |
| 2026-05-07 22:30 | 51.46997 | -0.47372 | 95 ft | 6 kts | 218° |
| 2026-05-07 22:30 | 51.46984 | -0.47438 | 94 ft | 8 kts | 262° |
| 2026-05-07 22:31 | 51.46982 | -0.47492 | 93 ft | 1 kts | 268° |
| 2026-05-07 22:31 | 51.46982 | -0.47498 | 93 ft | 0 kts | 268° |